sensor_id;sensor_type;location;lat;lon;timestamp;pressure;altitude;pressure_sealevel;temperature;humidity
11682;BME280;5897;42.640;23.310;2023-04-08T00:01:30;93961.75;;;6.30;74.15
11682;BME280;5897;42.640;23.310;2023-04-08T00:03:57;93956.06;;;6.24;74.27
11682;BME280;5897;42.640;23.310;2023-04-08T00:06:23;93967.59;;;6.18;74.47
11682;BME280;5897;42.640;23.310;2023-04-08T00:08:51;93961.97;;;6.09;74.72
11682;BME280;5897;42.640;23.310;2023-04-08T00:11:18;93966.94;;;6.07;75.09
11682;BME280;5897;42.640;23.310;2023-04-08T00:13:45;93957.38;;;6.06;75.09
11682;BME280;5897;42.640;23.310;2023-04-08T00:16:11;93958.91;;;6.03;74.96
11682;BME280;5897;42.640;23.310;2023-04-08T00:18:39;93961.59;;;6.03;75.09
11682;BME280;5897;42.640;23.310;2023-04-08T00:21:07;93965.84;;;6.01;75.02
11682;BME280;5897;42.640;23.310;2023-04-08T00:23:34;93956.63;;;6.02;74.82
11682;BME280;5897;42.640;23.310;2023-04-08T00:26:00;93957.78;;;6.01;74.39
11682;BME280;5897;42.640;23.310;2023-04-08T00:28:27;93962.00;;;6.02;74.20
11682;BME280;5897;42.640;23.310;2023-04-08T00:30:54;93965.91;;;5.94;74.58
11682;BME280;5897;42.640;23.310;2023-04-08T00:33:21;93956.00;;;5.84;75.81
11682;BME280;5897;42.640;23.310;2023-04-08T00:35:51;93963.28;;;5.87;75.72
11682;BME280;5897;42.640;23.310;2023-04-08T00:38:18;93955.94;;;5.91;75.28
11682;BME280;5897;42.640;23.310;2023-04-08T00:40:44;93960.16;;;5.95;75.30
11682;BME280;5897;42.640;23.310;2023-04-08T00:43:11;93964.72;;;5.98;74.99
11682;BME280;5897;42.640;23.310;2023-04-08T00:45:38;93970.44;;;6.00;74.84
11682;BME280;5897;42.640;23.310;2023-04-08T00:48:05;93970.59;;;5.79;76.02
11682;BME280;5897;42.640;23.310;2023-04-08T00:50:32;93967.16;;;5.75;76.75
11682;BME280;5897;42.640;23.310;2023-04-08T00:53:00;93963.31;;;5.76;77.19
11682;BME280;5897;42.640;23.310;2023-04-08T00:55:27;93960.63;;;5.80;77.36
11682;BME280;5897;42.640;23.310;2023-04-08T00:57:55;93966.69;;;5.91;76.36
11682;BME280;5897;42.640;23.310;2023-04-08T01:00:22;93951.03;;;5.82;76.85
11682;BME280;5897;42.640;23.310;2023-04-08T01:02:54;93957.88;;;5.90;76.93
11682;BME280;5897;42.640;23.310;2023-04-08T01:05:29;93971.97;;;6.01;76.70
11682;BME280;5897;42.640;23.310;2023-04-08T01:08:06;93980.31;;;6.10;75.27
11682;BME280;5897;42.640;23.310;2023-04-08T01:10:35;93968.00;;;6.16;74.67
11682;BME280;5897;42.640;23.310;2023-04-08T01:13:04;93976.38;;;6.22;73.91
11682;BME280;5897;42.640;23.310;2023-04-08T01:15:34;93983.25;;;6.26;73.61
11682;BME280;5897;42.640;23.310;2023-04-08T01:18:06;93972.06;;;6.31;73.18
11682;BME280;5897;42.640;23.310;2023-04-08T01:20:33;93970.91;;;6.32;73.25
11682;BME280;5897;42.640;23.310;2023-04-08T01:23:09;93976.25;;;6.36;73.25
11682;BME280;5897;42.640;23.310;2023-04-08T01:25:38;93984.72;;;6.31;73.72
11682;BME280;5897;42.640;23.310;2023-04-08T01:28:09;93979.38;;;6.27;73.99
11682;BME280;5897;42.640;23.310;2023-04-08T01:30:38;93972.50;;;6.26;74.69
11682;BME280;5897;42.640;23.310;2023-04-08T01:33:06;93967.13;;;6.26;75.72
11682;BME280;5897;42.640;23.310;2023-04-08T01:35:34;93964.03;;;6.31;76.01
11682;BME280;5897;42.640;23.310;2023-04-08T01:38:02;93968.94;;;6.40;75.98
11682;BME280;5897;42.640;23.310;2023-04-08T01:40:31;93972.38;;;6.40;76.09
11682;BME280;5897;42.640;23.310;2023-04-08T01:43:00;93976.13;;;6.50;75.31
11682;BME280;5897;42.640;23.310;2023-04-08T01:45:30;93973.78;;;6.52;74.85
11682;BME280;5897;42.640;23.310;2023-04-08T01:47:57;93975.31;;;6.53;74.60
11682;BME280;5897;42.640;23.310;2023-04-08T01:50:25;93970.72;;;6.53;75.04
11682;BME280;5897;42.640;23.310;2023-04-08T01:52:53;93974.47;;;6.59;74.73
11682;BME280;5897;42.640;23.310;2023-04-08T01:55:21;93975.28;;;6.56;74.82
11682;BME280;5897;42.640;23.310;2023-04-08T01:57:51;93977.94;;;6.56;75.11
11682;BME280;5897;42.640;23.310;2023-04-08T02:00:21;93972.59;;;6.56;75.09
11682;BME280;5897;42.640;23.310;2023-04-08T02:02:52;93989.03;;;6.62;74.87
11682;BME280;5897;42.640;23.310;2023-04-08T02:05:19;93985.13;;;6.66;75.17
11682;BME280;5897;42.640;23.310;2023-04-08T02:07:47;93986.31;;;6.65;75.43
11682;BME280;5897;42.640;23.310;2023-04-08T02:10:14;93989.78;;;6.62;76.20
11682;BME280;5897;42.640;23.310;2023-04-08T02:12:41;93989.03;;;6.62;76.36
11682;BME280;5897;42.640;23.310;2023-04-08T02:15:09;93993.56;;;6.68;76.95
11682;BME280;5897;42.640;23.310;2023-04-08T02:17:42;93997.81;;;6.66;77.36
11682;BME280;5897;42.640;23.310;2023-04-08T02:20:16;93994.78;;;6.60;77.55
11682;BME280;5897;42.640;23.310;2023-04-08T02:22:47;93995.22;;;6.55;77.53
11682;BME280;5897;42.640;23.310;2023-04-08T02:25:16;93999.88;;;6.51;77.17
11682;BME280;5897;42.640;23.310;2023-04-08T02:27:44;93996.06;;;6.45;76.65
11682;BME280;5897;42.640;23.310;2023-04-08T02:30:14;93997.66;;;6.39;76.79
11682;BME280;5897;42.640;23.310;2023-04-08T02:32:43;93998.91;;;6.31;76.80
11682;BME280;5897;42.640;23.310;2023-04-08T02:35:12;93987.16;;;6.18;76.96
11682;BME280;5897;42.640;23.310;2023-04-08T02:37:40;93995.97;;;6.15;77.32
11682;BME280;5897;42.640;23.310;2023-04-08T02:40:23;93992.56;;;6.11;77.65
11682;BME280;5897;42.640;23.310;2023-04-08T02:42:50;93993.00;;;6.03;78.06
11682;BME280;5897;42.640;23.310;2023-04-08T02:45:18;93989.97;;;6.01;78.41
11682;BME280;5897;42.640;23.310;2023-04-08T02:47:45;93991.84;;;6.07;78.64
11682;BME280;5897;42.640;23.310;2023-04-08T02:50:13;93994.88;;;6.09;78.54
11682;BME280;5897;42.640;23.310;2023-04-08T02:52:39;93997.19;;;6.07;78.33
11682;BME280;5897;42.640;23.310;2023-04-08T02:55:08;93969.03;;;5.85;78.03
11682;BME280;5897;42.640;23.310;2023-04-08T02:57:35;93991.09;;;6.03;77.83
11682;BME280;5897;42.640;23.310;2023-04-08T03:00:03;93995.31;;;6.04;77.86
11682;BME280;5897;42.640;23.310;2023-04-08T03:02:30;93998.78;;;6.01;77.93
11682;BME280;5897;42.640;23.310;2023-04-08T03:04:57;94000.31;;;6.02;77.67
11682;BME280;5897;42.640;23.310;2023-04-08T03:07:25;94002.56;;;6.07;77.56
11682;BME280;5897;42.640;23.310;2023-04-08T03:09:53;94003.66;;;6.13;77.70
11682;BME280;5897;42.640;23.310;2023-04-08T03:12:20;93997.91;;;6.15;78.06
11682;BME280;5897;42.640;23.310;2023-04-08T03:14:47;93991.78;;;6.14;78.29
11682;BME280;5897;42.640;23.310;2023-04-08T03:17:14;93999.03;;;6.14;78.18
11682;BME280;5897;42.640;23.310;2023-04-08T03:19:41;93999.44;;;6.16;78.30
11682;BME280;5897;42.640;23.310;2023-04-08T03:22:07;93991.41;;;6.12;78.56
11682;BME280;5897;42.640;23.310;2023-04-08T03:24:36;93987.16;;;6.18;78.51
11682;BME280;5897;42.640;23.310;2023-04-08T03:27:03;93999.00;;;6.21;78.30
11682;BME280;5897;42.640;23.310;2023-04-08T03:29:30;94001.69;;;6.21;78.28
11682;BME280;5897;42.640;23.310;2023-04-08T03:31:57;94005.50;;;6.23;78.40
11682;BME280;5897;42.640;23.310;2023-04-08T03:34:23;93996.72;;;6.19;78.29
11682;BME280;5897;42.640;23.310;2023-04-08T03:36:50;93997.13;;;6.14;78.63
11682;BME280;5897;42.640;23.310;2023-04-08T03:39:17;94000.19;;;6.16;78.43
11682;BME280;5897;42.640;23.310;2023-04-08T03:41:46;94001.31;;;6.19;78.48
11682;BME280;5897;42.640;23.310;2023-04-08T03:44:12;94000.13;;;6.23;78.33
11682;BME280;5897;42.640;23.310;2023-04-08T03:46:39;93996.38;;;6.17;78.50
11682;BME280;5897;42.640;23.310;2023-04-08T03:49:06;94000.19;;;6.16;78.60
11682;BME280;5897;42.640;23.310;2023-04-08T03:51:33;94002.50;;;6.14;78.41
11682;BME280;5897;42.640;23.310;2023-04-08T03:53:59;93996.03;;;6.08;78.27
11682;BME280;5897;42.640;23.310;2023-04-08T03:56:26;93998.34;;;6.10;78.44
11682;BME280;5897;42.640;23.310;2023-04-08T03:58:54;93994.94;;;6.02;79.26
11682;BME280;5897;42.640;23.310;2023-04-08T04:01:21;94003.34;;;6.04;79.96
11682;BME280;5897;42.640;23.310;2023-04-08T04:03:48;93996.47;;;6.03;80.07
11682;BME280;5897;42.640;23.310;2023-04-08T04:06:15;93994.19;;;5.98;79.66
11682;BME280;5897;42.640;23.310;2023-04-08T04:08:41;93991.53;;;5.98;79.24
11682;BME280;5897;42.640;23.310;2023-04-08T04:11:08;93988.84;;;5.98;79.11
11682;BME280;5897;42.640;23.310;2023-04-08T04:13:35;93992.69;;;5.97;79.42
11682;BME280;5897;42.640;23.310;2023-04-08T04:16:04;94000.34;;;5.99;79.52
11682;BME280;5897;42.640;23.310;2023-04-08T04:18:30;93997.66;;;5.99;79.54
11682;BME280;5897;42.640;23.310;2023-04-08T04:20:57;94001.13;;;5.96;80.05
11682;BME280;5897;42.640;23.310;2023-04-08T04:23:24;94006.41;;;6.03;79.86
11682;BME280;5897;42.640;23.310;2023-04-08T04:25:51;94004.09;;;6.08;79.50
11682;BME280;5897;42.640;23.310;2023-04-08T04:28:17;94003.63;;;6.17;79.51
11682;BME280;5897;42.640;23.310;2023-04-08T04:30:44;94005.53;;;6.16;79.53
11682;BME280;5897;42.640;23.310;2023-04-08T04:33:12;94006.34;;;6.13;79.62
11682;BME280;5897;42.640;23.310;2023-04-08T04:35:39;94007.13;;;6.10;80.10
11682;BME280;5897;42.640;23.310;2023-04-08T04:38:06;94005.28;;;6.04;80.00
11682;BME280;5897;42.640;23.310;2023-04-08T04:40:36;94015.88;;;6.18;79.85
11682;BME280;5897;42.640;23.310;2023-04-08T04:43:04;94010.09;;;6.23;79.46
11682;BME280;5897;42.640;23.310;2023-04-08T04:45:30;94007.38;;;6.26;80.04
11682;BME280;5897;42.640;23.310;2023-04-08T04:47:57;94013.47;;;6.30;78.93
11682;BME280;5897;42.640;23.310;2023-04-08T04:50:25;94018.41;;;6.39;78.60
11682;BME280;5897;42.640;23.310;2023-04-08T04:52:52;94017.97;;;6.44;77.90
11682;BME280;5897;42.640;23.310;2023-04-08T04:55:19;94022.53;;;6.47;77.09
11682;BME280;5897;42.640;23.310;2023-04-08T04:57:46;94005.72;;;6.39;78.67
11682;BME280;5897;42.640;23.310;2023-04-08T05:00:14;93986.38;;;6.18;77.94
11682;BME280;5897;42.640;23.310;2023-04-08T05:02:41;94023.25;;;6.51;77.00
11682;BME280;5897;42.640;23.310;2023-04-08T05:05:08;94026.72;;;6.51;77.17
11682;BME280;5897;42.640;23.310;2023-04-08T05:07:37;94028.25;;;6.52;76.77
11682;BME280;5897;42.640;23.310;2023-04-08T05:10:05;94025.59;;;6.45;76.32
11682;BME280;5897;42.640;23.310;2023-04-08T05:12:31;94019.13;;;6.43;75.91
11682;BME280;5897;42.640;23.310;2023-04-08T05:14:58;94023.03;;;6.35;76.11
11682;BME280;5897;42.640;23.310;2023-04-08T05:17:25;94020.69;;;6.37;76.28
11682;BME280;5897;42.640;23.310;2023-04-08T05:19:52;94027.97;;;6.40;76.53
11682;BME280;5897;42.640;23.310;2023-04-08T05:22:19;93997.75;;;6.32;76.80
11682;BME280;5897;42.640;23.310;2023-04-08T05:24:47;94017.94;;;6.47;76.84
11682;BME280;5897;42.640;23.310;2023-04-08T05:27:14;94023.28;;;6.47;75.44
11682;BME280;5897;42.640;23.310;2023-04-08T05:29:41;94017.53;;;6.49;74.85
11682;BME280;5897;42.640;23.310;2023-04-08T05:32:07;94019.03;;;6.53;74.88
11682;BME280;5897;42.640;23.310;2023-04-08T05:34:34;94027.69;;;6.68;74.07
11682;BME280;5897;42.640;23.310;2023-04-08T05:37:01;94025.38;;;6.70;73.33
11682;BME280;5897;42.640;23.310;2023-04-08T05:39:28;94026.41;;;6.79;73.27
11682;BME280;5897;42.640;23.310;2023-04-08T05:41:56;94026.38;;;6.86;73.92
11682;BME280;5897;42.640;23.310;2023-04-08T05:44:23;94020.09;;;6.96;73.69
11682;BME280;5897;42.640;23.310;2023-04-08T05:46:49;94020.13;;;6.93;73.94
11682;BME280;5897;42.640;23.310;2023-04-08T05:49:17;94022.72;;;7.03;73.32
11682;BME280;5897;42.640;23.310;2023-04-08T05:51:44;94015.41;;;7.04;71.67
11682;BME280;5897;42.640;23.310;2023-04-08T05:54:10;94017.34;;;7.03;71.59
11682;BME280;5897;42.640;23.310;2023-04-08T05:56:37;94018.44;;;7.09;71.33
11682;BME280;5897;42.640;23.310;2023-04-08T05:59:05;94017.56;;;7.16;70.87
11682;BME280;5897;42.640;23.310;2023-04-08T06:01:32;94025.31;;;7.10;71.72
11682;BME280;5897;42.640;23.310;2023-04-08T06:03:59;94015.22;;;7.21;71.22
11682;BME280;5897;42.640;23.310;2023-04-08T06:06:25;94022.94;;;7.16;72.82
11682;BME280;5897;42.640;23.310;2023-04-08T06:08:52;94022.09;;;7.22;72.15
11682;BME280;5897;42.640;23.310;2023-04-08T06:11:19;94021.19;;;7.36;70.22
11682;BME280;5897;42.640;23.310;2023-04-08T06:13:46;94018.53;;;7.32;70.32
11682;BME280;5897;42.640;23.310;2023-04-08T06:16:15;94019.66;;;7.35;70.39
11682;BME280;5897;42.640;23.310;2023-04-08T06:18:42;94021.44;;;7.45;70.38
11682;BME280;5897;42.640;23.310;2023-04-08T06:21:09;94017.59;;;7.46;71.15
11682;BME280;5897;42.640;23.310;2023-04-08T06:23:36;94023.16;;;7.58;70.94
11682;BME280;5897;42.640;23.310;2023-04-08T06:26:03;94019.13;;;7.73;69.95
11682;BME280;5897;42.640;23.310;2023-04-08T06:28:30;94023.56;;;7.87;70.33
11682;BME280;5897;42.640;23.310;2023-04-08T06:30:57;94018.56;;;7.85;71.77
11682;BME280;5897;42.640;23.310;2023-04-08T06:33:25;94020.59;;;8.04;70.33
11682;BME280;5897;42.640;23.310;2023-04-08T06:36:00;94018.44;;;8.22;69.80
11682;BME280;5897;42.640;23.310;2023-04-08T06:38:27;94019.91;;;8.27;70.17
11682;BME280;5897;42.640;23.310;2023-04-08T06:40:54;94022.34;;;8.41;69.75
11682;BME280;5897;42.640;23.310;2023-04-08T06:43:21;94021.13;;;8.45;68.95
11682;BME280;5897;42.640;23.310;2023-04-08T06:45:48;94028.56;;;8.61;67.95
11682;BME280;5897;42.640;23.310;2023-04-08T06:48:15;94023.59;;;8.59;67.06
11682;BME280;5897;42.640;23.310;2023-04-08T06:50:43;94028.63;;;8.57;66.30
11682;BME280;5897;42.640;23.310;2023-04-08T06:53:10;94031.66;;;8.59;67.74
11682;BME280;5897;42.640;23.310;2023-04-08T06:55:37;94032.72;;;8.65;67.83
11682;BME280;5897;42.640;23.310;2023-04-08T06:58:03;94028.50;;;8.64;67.08
11682;BME280;5897;42.640;23.310;2023-04-08T07:00:30;94021.41;;;8.74;67.67
11682;BME280;5897;42.640;23.310;2023-04-08T07:02:57;94029.66;;;8.86;69.11
11682;BME280;5897;42.640;23.310;2023-04-08T07:05:23;94026.13;;;8.89;67.67
11682;BME280;5897;42.640;23.310;2023-04-08T07:07:52;94030.09;;;9.04;65.55
11682;BME280;5897;42.640;23.310;2023-04-08T07:10:18;94024.84;;;8.97;65.54
11682;BME280;5897;42.640;23.310;2023-04-08T07:12:45;94027.88;;;8.99;65.22
11682;BME280;5897;42.640;23.310;2023-04-08T07:15:12;94026.22;;;9.05;65.06
11682;BME280;5897;42.640;23.310;2023-04-08T07:17:39;94029.31;;;9.04;65.78
11682;BME280;5897;42.640;23.310;2023-04-08T07:20:06;94032.31;;;9.09;65.74
11682;BME280;5897;42.640;23.310;2023-04-08T07:22:33;94039.44;;;9.19;66.03
11682;BME280;5897;42.640;23.310;2023-04-08T07:25:01;94042.25;;;9.32;66.01
11682;BME280;5897;42.640;23.310;2023-04-08T07:27:28;94037.78;;;9.45;65.66
11682;BME280;5897;42.640;23.310;2023-04-08T07:29:55;94039.41;;;9.58;64.79
11682;BME280;5897;42.640;23.310;2023-04-08T07:32:22;94041.19;;;9.65;65.17
11682;BME280;5897;42.640;23.310;2023-04-08T07:34:49;94037.69;;;9.68;64.10
11682;BME280;5897;42.640;23.310;2023-04-08T07:37:15;94035.31;;;9.70;64.08
11682;BME280;5897;42.640;23.310;2023-04-08T07:39:42;94028.53;;;9.81;63.66
11682;BME280;5897;42.640;23.310;2023-04-08T07:42:11;94050.53;;;10.15;62.42
11682;BME280;5897;42.640;23.310;2023-04-08T07:44:37;94047.25;;;10.08;62.48
11682;BME280;5897;42.640;23.310;2023-04-08T07:47:04;94053.06;;;10.06;62.39
11682;BME280;5897;42.640;23.310;2023-04-08T07:49:31;94053.09;;;10.22;61.94
11682;BME280;5897;42.640;23.310;2023-04-08T07:51:58;94051.47;;;10.25;61.01
11682;BME280;5897;42.640;23.310;2023-04-08T07:54:25;94061.19;;;10.22;60.80
11682;BME280;5897;42.640;23.310;2023-04-08T07:56:53;94056.94;;;9.86;61.31
11682;BME280;5897;42.640;23.310;2023-04-08T07:59:21;94055.75;;;10.06;61.27
11682;BME280;5897;42.640;23.310;2023-04-08T08:01:47;94069.38;;;10.19;61.30
11682;BME280;5897;42.640;23.310;2023-04-08T08:04:14;94074.25;;;10.24;62.05
11682;BME280;5897;42.640;23.310;2023-04-08T08:06:41;94067.09;;;10.33;62.08
11682;BME280;5897;42.640;23.310;2023-04-08T08:09:08;94073.25;;;10.50;62.15
11682;BME280;5897;42.640;23.310;2023-04-08T08:11:35;94071.66;;;10.52;59.99
11682;BME280;5897;42.640;23.310;2023-04-08T08:14:02;94075.38;;;10.58;60.50
11682;BME280;5897;42.640;23.310;2023-04-08T08:16:31;94071.06;;;10.77;60.38
11682;BME280;5897;42.640;23.310;2023-04-08T08:18:58;94065.38;;;10.87;59.96
11682;BME280;5897;42.640;23.310;2023-04-08T08:21:28;94071.06;;;10.77;60.13
11682;BME280;5897;42.640;23.310;2023-04-08T08:23:55;94070.91;;;10.68;60.00
11682;BME280;5897;42.640;23.310;2023-04-08T08:26:25;94073.28;;;10.66;59.79
11682;BME280;5897;42.640;23.310;2023-04-08T08:28:51;94076.19;;;10.87;58.94
11682;BME280;5897;42.640;23.310;2023-04-08T08:31:18;94075.19;;;10.97;58.98
11682;BME280;5897;42.640;23.310;2023-04-08T08:33:46;94075.69;;;10.76;58.76
11682;BME280;5897;42.640;23.310;2023-04-08T08:36:13;94077.66;;;10.76;58.34
11682;BME280;5897;42.640;23.310;2023-04-08T08:39:02;94072.16;;;10.79;58.67
11682;BME280;5897;42.640;23.310;2023-04-08T08:41:32;94076.63;;;10.86;58.87
11682;BME280;5897;42.640;23.310;2023-04-08T08:44:01;94075.19;;;10.81;58.43
11682;BME280;5897;42.640;23.310;2023-04-08T08:46:28;94076.38;;;10.80;58.52
11682;BME280;5897;42.640;23.310;2023-04-08T08:48:59;94069.28;;;10.86;58.48
11682;BME280;5897;42.640;23.310;2023-04-08T08:51:26;94076.03;;;10.94;58.42
11682;BME280;5897;42.640;23.310;2023-04-08T08:53:57;94078.88;;;11.03;58.07
11682;BME280;5897;42.640;23.310;2023-04-08T08:56:27;94080.22;;;11.11;56.95
11682;BME280;5897;42.640;23.310;2023-04-08T08:58:53;94076.25;;;11.16;56.34
11682;BME280;5897;42.640;23.310;2023-04-08T09:01:32;94084.06;;;11.42;55.85
11682;BME280;5897;42.640;23.310;2023-04-08T09:04:09;94089.34;;;11.46;55.21
11682;BME280;5897;42.640;23.310;2023-04-08T09:06:36;94079.47;;;11.39;55.02
11682;BME280;5897;42.640;23.310;2023-04-08T09:09:03;94095.00;;;11.51;55.05
11682;BME280;5897;42.640;23.310;2023-04-08T09:11:35;94079.75;;;11.57;55.18
11682;BME280;5897;42.640;23.310;2023-04-08T09:14:02;94086.44;;;11.69;55.21
11682;BME280;5897;42.640;23.310;2023-04-08T09:16:31;94087.47;;;11.99;53.53
11682;BME280;5897;42.640;23.310;2023-04-08T09:19:08;94073.63;;;12.10;54.31
11682;BME280;5897;42.640;23.310;2023-04-08T09:21:36;94083.03;;;11.93;55.33
11682;BME280;5897;42.640;23.310;2023-04-08T09:24:03;94073.94;;;11.87;56.61
11682;BME280;5897;42.640;23.310;2023-04-08T09:26:30;94076.88;;;12.05;56.78
11682;BME280;5897;42.640;23.310;2023-04-08T09:28:58;94066.72;;;12.09;56.73
11682;BME280;5897;42.640;23.310;2023-04-08T09:31:27;94066.25;;;12.48;54.24
11682;BME280;5897;42.640;23.310;2023-04-08T09:33:55;94057.03;;;12.83;53.76
11682;BME280;5897;42.640;23.310;2023-04-08T09:36:24;94053.31;;;13.36;52.49
11682;BME280;5897;42.640;23.310;2023-04-08T09:38:52;94058.03;;;13.87;51.48
11682;BME280;5897;42.640;23.310;2023-04-08T09:41:21;94054.94;;;14.19;47.79
11682;BME280;5897;42.640;23.310;2023-04-08T09:43:49;94055.50;;;14.45;46.74
11682;BME280;5897;42.640;23.310;2023-04-08T09:46:20;94042.69;;;14.45;46.34
11682;BME280;5897;42.640;23.310;2023-04-08T09:48:57;94046.41;;;14.39;47.12
11682;BME280;5897;42.640;23.310;2023-04-08T09:51:31;94039.88;;;14.67;46.84
11682;BME280;5897;42.640;23.310;2023-04-08T09:54:02;94039.59;;;14.74;45.92
11682;BME280;5897;42.640;23.310;2023-04-08T09:56:40;94046.13;;;14.85;46.40
11682;BME280;5897;42.640;23.310;2023-04-08T09:59:11;94042.28;;;14.65;46.82
11682;BME280;5897;42.640;23.310;2023-04-08T10:01:44;94038.69;;;14.77;46.79
11682;BME280;5897;42.640;23.310;2023-04-08T10:04:14;94045.97;;;14.10;47.77
11682;BME280;5897;42.640;23.310;2023-04-08T10:06:43;94040.31;;;13.74;48.74
11682;BME280;5897;42.640;23.310;2023-04-08T10:09:10;94033.75;;;13.62;49.16
11682;BME280;5897;42.640;23.310;2023-04-08T10:11:38;94038.97;;;13.35;50.06
11682;BME280;5897;42.640;23.310;2023-04-08T10:14:04;94038.13;;;13.04;50.47
11682;BME280;5897;42.640;23.310;2023-04-08T10:16:31;94038.13;;;13.04;51.17
11682;BME280;5897;42.640;23.310;2023-04-08T10:18:58;94034.44;;;12.86;52.76
11682;BME280;5897;42.640;23.310;2023-04-08T10:21:38;94033.53;;;12.55;53.55
11682;BME280;5897;42.640;23.310;2023-04-08T10:24:09;94034.31;;;12.18;55.57
11682;BME280;5897;42.640;23.310;2023-04-08T10:26:38;94039.63;;;12.34;56.00
11682;BME280;5897;42.640;23.310;2023-04-08T10:32:28;94034.66;;;12.20;57.42
11682;BME280;5897;42.640;23.310;2023-04-08T10:34:55;94035.41;;;12.20;57.69
11682;BME280;5897;42.640;23.310;2023-04-08T10:37:22;94034.53;;;12.23;59.63
11682;BME280;5897;42.640;23.310;2023-04-08T10:39:53;94032.03;;;12.16;60.25
11682;BME280;5897;42.640;23.310;2023-04-08T10:42:26;94029.44;;;12.13;61.81
11682;BME280;5897;42.640;23.310;2023-04-08T10:44:53;94021.75;;;12.24;62.51
11682;BME280;5897;42.640;23.310;2023-04-08T10:47:24;94020.19;;;12.60;62.82
11682;BME280;5897;42.640;23.310;2023-04-08T10:49:52;94013.97;;;12.85;59.88
11682;BME280;5897;42.640;23.310;2023-04-08T10:52:19;94011.25;;;12.97;58.10
11682;BME280;5897;42.640;23.310;2023-04-08T10:54:47;94006.97;;;13.30;54.96
11682;BME280;5897;42.640;23.310;2023-04-08T10:57:22;94006.50;;;13.23;53.38
11682;BME280;5897;42.640;23.310;2023-04-08T10:59:49;94006.56;;;12.98;53.93
11682;BME280;5897;42.640;23.310;2023-04-08T11:02:16;94011.34;;;12.94;52.67
11682;BME280;5897;42.640;23.310;2023-04-08T11:04:43;93996.19;;;12.84;53.34
11682;BME280;5897;42.640;23.310;2023-04-08T11:07:12;94007.34;;;12.98;54.19
11682;BME280;5897;42.640;23.310;2023-04-08T11:09:39;93997.53;;;12.67;55.22
11682;BME280;5897;42.640;23.310;2023-04-08T11:12:06;94004.03;;;12.57;55.08
11682;BME280;5897;42.640;23.310;2023-04-08T11:14:35;93995.50;;;12.46;54.25
11682;BME280;5897;42.640;23.310;2023-04-08T11:17:02;94004.72;;;12.36;55.25
11682;BME280;5897;42.640;23.310;2023-04-08T11:19:30;93985.56;;;12.43;56.71
11682;BME280;5897;42.640;23.310;2023-04-08T11:21:57;93980.75;;;12.59;54.48
11682;BME280;5897;42.640;23.310;2023-04-08T11:24:24;93978.63;;;12.29;54.83
11682;BME280;5897;42.640;23.310;2023-04-08T11:26:51;93981.41;;;12.51;53.82
11682;BME280;5897;42.640;23.310;2023-04-08T11:29:19;93974.06;;;12.39;54.10
11682;BME280;5897;42.640;23.310;2023-04-08T11:31:48;93963.88;;;12.30;53.26
11682;BME280;5897;42.640;23.310;2023-04-08T11:34:21;93976.09;;;12.60;52.95
11682;BME280;5897;42.640;23.310;2023-04-08T11:36:48;93970.63;;;13.06;51.89
11682;BME280;5897;42.640;23.310;2023-04-08T11:39:15;93976.50;;;13.48;49.13
11682;BME280;5897;42.640;23.310;2023-04-08T11:41:42;93970.41;;;13.96;47.37
11682;BME280;5897;42.640;23.310;2023-04-08T11:44:09;93977.75;;;14.17;44.51
11682;BME280;5897;42.640;23.310;2023-04-08T11:46:36;93962.88;;;13.91;44.56
11682;BME280;5897;42.640;23.310;2023-04-08T11:49:06;93964.53;;;13.88;45.42
11682;BME280;5897;42.640;23.310;2023-04-08T11:51:36;93963.66;;;14.31;45.58
11682;BME280;5897;42.640;23.310;2023-04-08T11:54:25;93949.25;;;14.97;43.73
11682;BME280;5897;42.640;23.310;2023-04-08T11:56:52;93958.31;;;15.57;42.57
11682;BME280;5897;42.640;23.310;2023-04-08T11:59:20;93947.66;;;15.77;41.20
11682;BME280;5897;42.640;23.310;2023-04-08T12:01:47;93940.56;;;16.21;41.17
11682;BME280;5897;42.640;23.310;2023-04-08T12:04:15;93946.78;;;16.54;41.37
11682;BME280;5897;42.640;23.310;2023-04-08T12:06:41;93936.94;;;16.94;40.59
11682;BME280;5897;42.640;23.310;2023-04-08T12:09:11;93944.97;;;16.98;40.09
11682;BME280;5897;42.640;23.310;2023-04-08T12:11:38;93930.53;;;17.21;38.76
11682;BME280;5897;42.640;23.310;2023-04-08T12:14:05;93930.78;;;17.08;38.25
11682;BME280;5897;42.640;23.310;2023-04-08T12:16:31;93924.53;;;16.93;39.11
11682;BME280;5897;42.640;23.310;2023-04-08T12:18:58;93929.59;;;17.24;38.61
11682;BME280;5897;42.640;23.310;2023-04-08T12:21:26;93920.28;;;17.16;38.32
11682;BME280;5897;42.640;23.310;2023-04-08T12:23:53;93916.72;;;16.63;39.57
11682;BME280;5897;42.640;23.310;2023-04-08T12:26:21;93921.28;;;16.01;40.23
11682;BME280;5897;42.640;23.310;2023-04-08T12:28:47;93924.31;;;15.34;39.54
11682;BME280;5897;42.640;23.310;2023-04-08T12:31:14;93909.81;;;14.92;40.37
11682;BME280;5897;42.640;23.310;2023-04-08T12:33:41;93915.41;;;14.89;42.38
11682;BME280;5897;42.640;23.310;2023-04-08T12:36:08;93916.25;;;14.32;43.75
11682;BME280;5897;42.640;23.310;2023-04-08T12:38:36;93912.91;;;14.19;43.82
11682;BME280;5897;42.640;23.310;2023-04-08T12:41:03;93916.88;;;13.96;44.06
11682;BME280;5897;42.640;23.310;2023-04-08T12:43:30;93903.06;;;13.42;46.79
11682;BME280;5897;42.640;23.310;2023-04-08T12:45:57;93907.16;;;13.47;47.37
11682;BME280;5897;42.640;23.310;2023-04-08T12:48:24;93904.88;;;13.45;46.93
11682;BME280;5897;42.640;23.310;2023-04-08T12:50:52;93912.47;;;13.29;48.14
11682;BME280;5897;42.640;23.310;2023-04-08T12:53:19;93905.19;;;13.17;47.67
11682;BME280;5897;42.640;23.310;2023-04-08T12:55:47;93905.50;;;12.97;48.13
11682;BME280;5897;42.640;23.310;2023-04-08T12:58:14;93905.38;;;12.67;49.21
11682;BME280;5897;42.640;23.310;2023-04-08T13:00:42;93905.16;;;12.61;50.36
11682;BME280;5897;42.640;23.310;2023-04-08T13:03:11;93915.59;;;12.50;50.99
11682;BME280;5897;42.640;23.310;2023-04-08T13:05:38;93918.00;;;12.48;51.78
11682;BME280;5897;42.640;23.310;2023-04-08T13:08:04;93914.47;;;12.39;51.44
11682;BME280;5897;42.640;23.310;2023-04-08T13:10:31;93914.88;;;12.37;51.85
11682;BME280;5897;42.640;23.310;2023-04-08T13:12:59;93913.25;;;12.40;53.93
11682;BME280;5897;42.640;23.310;2023-04-08T13:15:27;93904.59;;;12.45;57.27